createdAt,value
2023-05-05T00:02:12.501Z,66.80
2023-05-05T00:05:10.528Z,66.50
2023-05-05T00:08:08.420Z,66.50
2023-05-05T00:11:06.341Z,65.30
2023-05-05T00:14:04.120Z,64.90
2023-05-05T00:17:02.047Z,64.60
2023-05-05T00:20:00.186Z,63.80
2023-05-05T00:22:58.127Z,62.50
2023-05-05T00:25:55.950Z,61.90
2023-05-05T00:28:53.899Z,62.30
2023-05-05T00:31:53.429Z,62.00
2023-05-05T00:34:51.448Z,60.60
2023-05-05T00:37:49.827Z,60.10
2023-05-05T00:40:47.789Z,59.70
2023-05-05T00:43:45.640Z,59.70
2023-05-05T00:46:44.656Z,58.60
2023-05-05T00:49:42.667Z,58.00
2023-05-05T00:52:40.845Z,58.70
2023-05-05T00:55:38.688Z,57.80
2023-05-05T00:58:37.578Z,57.50
2023-05-05T01:01:35.420Z,56.90
2023-05-05T01:04:33.293Z,57.20
2023-05-05T01:07:54.918Z,56.20
2023-05-05T01:10:59.985Z,55.50
2023-05-05T01:14:18.582Z,55.10
2023-05-05T01:17:21.556Z,54.50
2023-05-05T01:20:28.807Z,53.50
2023-05-05T01:23:56.348Z,53.20
2023-05-05T01:27:20.465Z,53.50
2023-05-05T01:30:41.804Z,53.80
2023-05-05T01:33:48.495Z,52.80
2023-05-05T01:36:55.505Z,52.50
2023-05-05T01:39:59.436Z,52.90
2023-05-05T01:42:59.175Z,52.20
2023-05-05T01:45:58.508Z,51.60
2023-05-05T01:48:57.778Z,50.50
2023-05-05T01:51:58.779Z,49.30
2023-05-05T01:54:58.610Z,49.10
2023-05-05T01:57:59.219Z,48.80
2023-05-05T02:00:59.244Z,49.50
2023-05-05T02:03:58.767Z,49.70
2023-05-05T02:06:58.751Z,48.40
2023-05-05T02:09:57.196Z,48.30
2023-05-05T02:12:55.326Z,48.30
2023-05-05T02:15:53.975Z,48.00
2023-05-05T02:18:53.042Z,47.70
2023-05-05T02:21:50.928Z,48.80
2023-05-05T02:24:48.853Z,48.50
2023-05-05T02:27:48.888Z,48.10
2023-05-05T02:30:55.391Z,47.90
2023-05-05T02:33:56.686Z,48.50
2023-05-05T02:36:58.685Z,48.20
2023-05-05T02:40:02.634Z,47.20
2023-05-05T02:43:05.972Z,47.10
2023-05-05T02:46:06.026Z,46.80
2023-05-05T02:49:04.110Z,47.40
2023-05-05T02:52:02.025Z,47.00
2023-05-05T02:55:00.914Z,46.20
2023-05-05T02:58:07.205Z,46.70
2023-05-05T03:01:23.416Z,46.70
2023-05-05T03:04:29.083Z,47.50
2023-05-05T03:07:32.221Z,47.40
2023-05-05T03:10:35.610Z,46.20
2023-05-05T03:13:35.478Z,46.70
2023-05-05T03:16:36.108Z,45.60
2023-05-05T03:19:36.010Z,45.50
2023-05-05T03:22:37.904Z,45.20
2023-05-05T03:25:51.185Z,45.40
2023-05-05T03:28:49.033Z,46.40
2023-05-05T03:31:47.138Z,46.60
2023-05-05T03:34:44.951Z,45.60
2023-05-05T03:37:42.955Z,45.80
2023-05-05T03:40:44.506Z,45.10
2023-05-05T03:43:43.047Z,44.80
2023-05-05T03:46:40.980Z,45.80
2023-05-05T03:49:38.922Z,44.70
2023-05-05T03:52:36.746Z,44.90
2023-05-05T03:55:34.737Z,45.00
2023-05-05T03:58:32.856Z,45.30
2023-05-05T04:01:32.100Z,46.70
2023-05-05T04:04:29.972Z,45.50
2023-05-05T04:07:28.097Z,45.30
2023-05-05T04:10:26.308Z,45.00
2023-05-05T04:13:24.778Z,46.80
2023-05-05T04:16:22.829Z,45.40
2023-05-05T04:19:20.901Z,44.20
2023-05-05T04:22:19.171Z,44.20
2023-05-05T04:25:17.294Z,44.10
2023-05-05T04:28:15.150Z,44.50
2023-05-05T04:31:13.132Z,44.80
2023-05-05T04:34:11.118Z,44.40
2023-05-05T04:37:09.166Z,44.90
2023-05-05T04:40:08.716Z,44.80
2023-05-05T04:43:07.653Z,45.10
2023-05-05T04:46:05.743Z,43.80
2023-05-05T04:49:05.706Z,44.10
2023-05-05T04:52:03.608Z,43.90
2023-05-05T04:55:01.863Z,43.30
2023-05-05T04:57:59.715Z,43.70
2023-05-05T05:00:57.927Z,43.30
2023-05-05T05:03:56.044Z,43.10
2023-05-05T05:06:56.227Z,43.30
2023-05-05T05:09:57.381Z,43.10
2023-05-05T05:12:56.066Z,43.30
2023-05-05T05:15:54.413Z,42.90
2023-05-05T05:18:52.296Z,42.40
2023-05-05T05:21:50.069Z,42.90
2023-05-05T05:24:48.042Z,42.80
2023-05-05T05:27:50.128Z,43.20
2023-05-05T05:30:53.394Z,43.40
2023-05-05T05:33:51.572Z,42.50
2023-05-05T05:36:49.521Z,43.40
2023-05-05T05:39:55.431Z,42.10
2023-05-05T05:42:53.368Z,41.70
2023-05-05T05:45:51.360Z,41.80
2023-05-05T05:48:49.327Z,41.90
2023-05-05T05:51:47.128Z,42.20
2023-05-05T05:54:45.041Z,41.70
2023-05-05T05:57:42.806Z,43.40
2023-05-05T06:00:40.714Z,44.20
2023-05-05T06:03:38.654Z,41.10
2023-05-05T06:06:36.620Z,40.70
2023-05-05T06:09:34.585Z,41.20
2023-05-05T06:12:33.895Z,41.80
2023-05-05T06:15:31.825Z,42.40
2023-05-05T06:18:29.983Z,41.20
2023-05-05T06:21:29.535Z,41.90
2023-05-05T06:24:28.060Z,40.00
2023-05-05T06:27:25.971Z,40.00
2023-05-05T06:30:23.899Z,40.60
2023-05-05T06:33:21.730Z,40.70
2023-05-05T06:36:19.672Z,40.20
2023-05-05T06:39:17.638Z,40.60
2023-05-05T06:42:15.509Z,40.40
2023-05-05T06:45:13.368Z,40.20
2023-05-05T06:48:11.345Z,40.00
2023-05-05T06:51:10.514Z,39.60
2023-05-05T06:54:08.532Z,39.70
2023-05-05T06:57:06.438Z,39.30
2023-05-05T07:00:06.526Z,40.00
2023-05-05T07:03:05.094Z,40.20
2023-05-05T07:06:03.072Z,40.90
2023-05-05T07:09:00.893Z,39.20
2023-05-05T07:11:58.858Z,39.30
2023-05-05T07:14:56.813Z,37.00
2023-05-05T07:17:54.773Z,37.90
2023-05-05T07:20:52.570Z,38.50
2023-05-05T07:23:50.507Z,37.80
2023-05-05T07:26:48.351Z,39.20
2023-05-05T07:29:46.253Z,39.30
2023-05-05T07:32:44.032Z,39.30
2023-05-05T07:35:41.975Z,38.10
2023-05-05T07:38:39.963Z,38.70
2023-05-05T07:41:37.923Z,38.00
2023-05-05T07:44:35.889Z,38.70
2023-05-05T07:47:33.914Z,38.00
2023-05-05T07:50:31.774Z,38.10
2023-05-05T07:53:30.305Z,37.90
2023-05-05T07:56:28.139Z,38.20
2023-05-05T07:59:26.062Z,38.70
2023-05-05T08:02:23.974Z,37.90
2023-05-05T08:05:22.010Z,37.70
2023-05-05T08:08:25.180Z,36.10
2023-05-05T08:11:23.326Z,36.60
2023-05-05T08:14:21.157Z,35.90
2023-05-05T08:17:19.092Z,36.00
2023-05-05T08:20:18.038Z,36.80
2023-05-05T08:23:16.022Z,35.10
2023-05-05T08:26:14.536Z,37.20
2023-05-05T08:29:12.480Z,35.00
2023-05-05T08:32:10.296Z,36.10
2023-05-05T08:35:08.832Z,35.40
2023-05-05T08:38:06.949Z,35.10
2023-05-05T08:41:04.974Z,35.00
2023-05-05T08:44:03.838Z,34.50
2023-05-05T08:47:02.906Z,34.90
2023-05-05T08:50:02.368Z,34.90
2023-05-05T08:53:19.637Z,35.20
2023-05-05T08:56:18.859Z,34.20
2023-05-05T08:59:17.723Z,35.30
2023-05-05T09:02:16.913Z,33.40
2023-05-05T09:05:15.209Z,35.70
2023-05-05T09:08:13.095Z,34.70
2023-05-05T09:11:11.131Z,34.90
2023-05-05T09:14:08.894Z,36.20
2023-05-05T09:17:06.938Z,33.70
2023-05-05T09:20:10.880Z,34.00
2023-05-05T09:23:11.813Z,34.80
2023-05-05T09:26:09.703Z,33.40
2023-05-05T09:29:07.952Z,34.00
2023-05-05T09:32:09.215Z,34.10
2023-05-05T09:35:07.555Z,34.50
2023-05-05T09:38:12.949Z,34.30
2023-05-05T09:41:10.872Z,35.30
2023-05-05T09:44:09.472Z,35.20
2023-05-05T09:47:22.085Z,34.20
2023-05-05T09:50:24.195Z,34.30
2023-05-05T09:53:22.847Z,34.90
2023-05-05T09:56:21.323Z,35.00
2023-05-05T09:59:20.068Z,34.80
2023-05-05T10:02:18.282Z,34.70
2023-05-05T10:05:18.669Z,34.90
2023-05-05T10:08:17.293Z,35.90
2023-05-05T10:11:15.306Z,35.40
2023-05-05T10:14:18.077Z,35.10
2023-05-05T10:17:16.982Z,34.60
2023-05-05T10:20:16.310Z,36.10
2023-05-05T10:23:19.144Z,35.50
2023-05-05T10:26:20.174Z,35.20
2023-05-05T10:29:32.258Z,34.80
2023-05-05T10:33:00.460Z,35.60
2023-05-05T10:36:08.296Z,35.60
2023-05-05T10:39:09.875Z,35.70
2023-05-05T10:42:07.920Z,36.00
2023-05-05T10:45:07.591Z,35.50
2023-05-05T10:48:11.273Z,35.80
2023-05-05T10:51:39.380Z,35.40
2023-05-05T10:54:56.268Z,36.70
2023-05-05T10:57:54.915Z,35.80
2023-05-05T11:00:53.013Z,35.30
2023-05-05T11:03:51.107Z,35.50
2023-05-05T11:07:24.924Z,36.00
2023-05-05T11:10:23.873Z,37.10
2023-05-05T11:13:22.082Z,35.90
2023-05-05T11:16:48.481Z,36.00
2023-05-05T11:19:48.405Z,35.80
2023-05-05T11:23:21.612Z,36.20
2023-05-05T11:26:40.974Z,37.30
2023-05-05T11:30:09.769Z,36.30
2023-05-05T11:33:39.288Z,35.90
2023-05-05T11:36:40.654Z,36.90
2023-05-05T11:39:52.104Z,36.10
2023-05-05T11:42:50.622Z,36.00
2023-05-05T11:45:48.515Z,36.30
2023-05-05T11:48:50.949Z,36.60
2023-05-05T11:51:57.832Z,36.10
2023-05-05T11:55:01.722Z,35.70
2023-05-05T11:57:59.629Z,36.80
2023-05-05T12:52:22.480Z,36.20
2023-05-05T12:55:20.431Z,36.20
2023-05-05T12:58:18.489Z,36.10
2023-05-05T13:01:16.646Z,36.20
2023-05-05T13:04:15.846Z,36.30
2023-05-05T13:07:16.146Z,36.40
2023-05-05T13:10:14.038Z,36.60
2023-05-05T13:13:11.770Z,36.80
2023-05-05T13:16:09.634Z,37.10
2023-05-05T13:19:07.453Z,36.90
2023-05-05T13:22:05.316Z,36.90
2023-05-05T13:25:03.102Z,37.30
2023-05-05T13:28:00.976Z,37.50
2023-05-05T13:30:59.172Z,37.40
2023-05-05T13:33:58.821Z,37.60
2023-05-05T13:36:56.842Z,37.70
2023-05-05T13:39:59.912Z,37.60
2023-05-05T13:42:57.636Z,37.50
2023-05-05T13:46:02.828Z,37.60
2023-05-05T13:49:06.748Z,37.90
2023-05-05T13:52:04.711Z,38.10
2023-05-05T13:55:02.404Z,38.40
2023-05-05T13:58:00.270Z,38.50
2023-05-05T14:00:57.973Z,39.00
2023-05-05T14:03:57.291Z,39.00
2023-05-05T14:06:55.370Z,39.50
2023-05-05T14:09:53.316Z,39.50
2023-05-05T14:12:51.057Z,39.10
2023-05-05T14:15:50.837Z,39.40
2023-05-05T14:18:48.545Z,39.40
2023-05-05T14:21:46.580Z,40.30
2023-05-05T14:24:44.479Z,40.30
2023-05-05T14:27:42.309Z,41.50
2023-05-05T14:30:40.821Z,43.30
2023-05-05T14:33:38.651Z,44.30
2023-05-05T14:36:36.453Z,45.70
2023-05-05T14:39:34.265Z,46.00
2023-05-05T14:42:31.931Z,46.30
2023-05-05T14:45:30.217Z,46.50
2023-05-05T14:48:28.974Z,46.80
2023-05-05T14:51:26.837Z,47.10
2023-05-05T14:54:28.425Z,47.60
2023-05-05T14:57:26.909Z,47.70
2023-05-05T15:00:26.946Z,47.80
2023-05-05T15:03:24.937Z,48.20
2023-05-05T15:06:22.697Z,48.80
2023-05-05T15:09:20.972Z,49.20
2023-05-05T15:12:18.688Z,49.30
2023-05-05T15:15:16.740Z,49.20
2023-05-05T15:18:14.462Z,49.60
2023-05-05T15:21:12.552Z,49.50
2023-05-05T15:24:10.280Z,49.70
2023-05-05T15:27:08.100Z,50.10
2023-05-05T15:30:06.583Z,50.50
2023-05-05T15:33:04.483Z,50.80
2023-05-05T15:36:02.687Z,50.30
2023-05-05T15:39:00.596Z,50.70
2023-05-05T15:41:58.792Z,51.20
2023-05-05T15:44:56.727Z,50.80
2023-05-05T15:47:54.653Z,51.30
2023-05-05T15:50:52.520Z,50.50
2023-05-05T15:53:50.276Z,50.70
2023-05-05T15:56:48.161Z,51.00
2023-05-05T15:59:45.945Z,51.30
2023-05-05T16:02:44.711Z,51.30
2023-05-05T16:05:42.523Z,51.60
2023-05-05T16:08:40.932Z,51.30
2023-05-05T16:11:38.744Z,51.00
2023-05-05T16:14:36.557Z,51.90
2023-05-05T16:17:34.400Z,50.50
2023-05-05T16:20:32.400Z,50.80
2023-05-05T16:23:30.950Z,50.90
2023-05-05T16:26:28.786Z,50.90
2023-05-05T16:29:26.531Z,51.30
2023-05-05T16:32:24.322Z,51.30
2023-05-05T16:35:23.699Z,51.40
2023-05-05T16:38:21.491Z,51.50
2023-05-05T16:41:19.259Z,51.90
2023-05-05T16:44:17.522Z,51.80
2023-05-05T16:47:15.225Z,51.90
2023-05-05T16:50:13.321Z,51.80
2023-05-05T16:53:11.307Z,52.30
2023-05-05T16:56:13.529Z,52.50
2023-05-05T16:59:11.736Z,52.60
2023-05-05T17:02:09.607Z,52.80
2023-05-05T17:05:07.818Z,52.70
2023-05-05T17:08:06.114Z,52.70
2023-05-05T17:11:04.401Z,52.70
2023-05-05T17:14:02.378Z,53.00
2023-05-05T17:17:00.117Z,52.80
2023-05-05T17:19:58.032Z,53.00
2023-05-05T17:22:56.013Z,52.90
2023-05-05T17:25:53.856Z,52.80
2023-05-05T17:28:51.625Z,52.80
2023-05-05T17:31:49.897Z,53.30
2023-05-05T17:34:47.627Z,52.80
2023-05-05T17:37:45.740Z,53.00
2023-05-05T17:40:43.584Z,53.70
2023-05-05T17:43:41.546Z,53.60
2023-05-05T17:46:39.876Z,53.40
2023-05-05T17:49:37.663Z,54.20
2023-05-05T17:52:35.343Z,53.80
2023-05-05T17:55:33.181Z,54.00
2023-05-05T17:58:30.893Z,54.50
2023-05-05T18:01:28.764Z,54.30
2023-05-05T18:04:26.555Z,54.50
2023-05-05T18:07:24.386Z,54.30
2023-05-05T18:10:22.112Z,54.50
2023-05-05T18:13:21.717Z,54.70
2023-05-05T18:16:19.534Z,54.70
2023-05-05T18:19:19.040Z,54.60
2023-05-05T18:22:16.868Z,55.20
2023-05-05T18:25:14.967Z,55.60
2023-05-05T18:28:12.979Z,55.50
2023-05-05T18:31:10.835Z,55.80
2023-05-05T18:34:08.623Z,56.20
2023-05-05T18:37:06.488Z,56.00
2023-05-05T18:40:04.395Z,56.40
2023-05-05T18:43:02.448Z,56.40
2023-05-05T18:46:00.254Z,56.80
2023-05-05T18:48:58.117Z,56.70
2023-05-05T18:51:56.857Z,57.10
2023-05-05T18:54:54.658Z,57.20
2023-05-05T18:57:53.473Z,57.60
2023-05-05T19:00:51.704Z,57.30
2023-05-05T19:03:49.669Z,58.60
2023-05-05T19:06:47.545Z,57.80
2023-05-05T19:09:45.265Z,57.60
2023-05-05T19:12:43.087Z,57.60
2023-05-05T19:15:40.895Z,57.80
2023-05-05T19:18:38.806Z,57.60
2023-05-05T19:21:36.831Z,58.00
2023-05-05T19:24:36.099Z,58.40
2023-05-05T19:27:34.737Z,58.10
2023-05-05T19:30:32.810Z,58.70
2023-05-05T19:33:30.561Z,58.70
2023-05-05T19:36:28.851Z,59.10
2023-05-05T19:39:26.593Z,59.20
2023-05-05T19:42:24.581Z,59.20
2023-05-05T19:45:22.307Z,59.10
2023-05-05T19:48:20.186Z,59.00
2023-05-05T19:51:17.864Z,59.30
2023-05-05T19:54:16.603Z,60.00
2023-05-05T19:57:14.347Z,59.80
2023-05-05T20:00:13.048Z,60.30
2023-05-05T20:03:11.519Z,59.50
2023-05-05T20:06:09.386Z,59.70
2023-05-05T20:09:07.236Z,59.90
2023-05-05T20:12:05.336Z,60.20
2023-05-05T20:15:03.602Z,60.30
2023-05-05T20:18:01.518Z,60.30
2023-05-05T20:20:59.527Z,60.10
2023-05-05T20:23:57.355Z,60.10
2023-05-05T20:26:55.061Z,60.40
2023-05-05T20:29:53.173Z,60.00
2023-05-05T20:32:51.334Z,60.50
2023-05-05T20:35:49.193Z,60.60
2023-05-05T20:38:46.901Z,60.60
2023-05-05T20:41:46.787Z,60.50
2023-05-05T20:44:44.521Z,60.50
2023-05-05T20:47:42.386Z,60.80
2023-05-05T20:50:41.431Z,60.90
2023-05-05T20:53:39.377Z,60.80
2023-05-05T20:56:37.160Z,60.50
2023-05-05T20:59:35.042Z,60.50
2023-05-05T21:02:33.044Z,60.40
2023-05-05T21:05:32.135Z,60.60
2023-05-05T21:08:31.838Z,61.00
2023-05-05T21:11:29.694Z,61.10
2023-05-05T21:14:27.463Z,61.70
2023-05-05T21:17:26.259Z,61.20
2023-05-05T21:20:24.242Z,61.70
2023-05-05T21:23:22.181Z,61.20
2023-05-05T21:26:19.935Z,61.20
2023-05-05T21:29:17.700Z,61.10
2023-05-05T21:32:15.440Z,61.00
2023-05-05T21:35:13.341Z,61.00
2023-05-05T21:38:11.899Z,60.50
2023-05-05T21:41:09.707Z,60.50
2023-05-05T21:44:07.406Z,60.90
2023-05-05T21:47:06.781Z,61.10
2023-05-05T21:50:04.700Z,60.70
2023-05-05T21:53:02.537Z,61.00
2023-05-05T21:56:00.262Z,60.70
2023-05-05T21:58:58.085Z,60.80
2023-05-05T22:01:55.919Z,60.80
2023-05-05T22:04:54.281Z,60.60
2023-05-05T22:07:52.283Z,60.60
2023-05-05T22:10:50.512Z,61.30
2023-05-05T22:13:48.529Z,61.40
2023-05-05T22:16:46.663Z,61.50
2023-05-05T22:19:44.626Z,61.60
2023-05-05T22:22:42.736Z,61.80
2023-05-05T22:25:40.940Z,62.00
2023-05-05T22:28:39.322Z,61.90
2023-05-05T22:31:38.215Z,62.00
2023-05-05T22:34:36.486Z,62.00
2023-05-05T22:37:34.755Z,62.40
2023-05-05T22:40:32.847Z,61.90
2023-05-05T22:43:30.809Z,61.70
2023-05-05T22:46:28.938Z,61.60
2023-05-05T22:49:30.251Z,61.40
2023-05-05T22:52:29.600Z,61.10
2023-05-05T22:55:27.875Z,60.70
2023-05-05T22:58:26.485Z,59.90
2023-05-05T23:01:24.557Z,59.70
2023-05-05T23:04:22.714Z,60.40
2023-05-05T23:07:20.888Z,60.20
2023-05-05T23:10:19.115Z,60.30
2023-05-05T23:13:17.150Z,60.40
2023-05-05T23:16:15.295Z,60.50
2023-05-05T23:19:14.342Z,60.10
2023-05-05T23:22:12.377Z,60.00
2023-05-05T23:25:10.937Z,60.10
2023-05-05T23:28:09.344Z,60.40
2023-05-05T23:31:07.344Z,60.20
2023-05-05T23:34:05.661Z,60.30
2023-05-05T23:37:05.894Z,61.00
2023-05-05T23:40:04.644Z,60.30
2023-05-05T23:43:02.574Z,60.60
2023-05-05T23:46:00.657Z,60.70
2023-05-05T23:48:58.640Z,60.90
2023-05-05T23:51:56.758Z,60.60
2023-05-05T23:54:54.714Z,61.20
2023-05-05T23:57:53.953Z,61.60
